createdAt,value
2023-02-11T00:03:33.954Z,-8.6
2023-02-11T00:06:04.663Z,-8.7
2023-02-11T00:08:35.325Z,-8.8
2023-02-11T00:11:05.994Z,-8.8
2023-02-11T00:13:46.623Z,-8.8
2023-02-11T00:16:17.300Z,-8.8
2023-02-11T00:18:48.164Z,-8.8
2023-02-11T00:21:18.783Z,-8.7
2023-02-11T00:23:49.411Z,-8.7
2023-02-11T00:26:20.118Z,-8.8
2023-02-11T00:29:00.741Z,-8.8
2023-02-11T00:31:31.512Z,-8.9
2023-02-11T00:34:02.478Z,-8.9
2023-02-11T00:36:33.134Z,-8.9
2023-02-11T00:39:03.770Z,-9.0
2023-02-11T00:44:24.399Z,-9.0
2023-02-11T00:46:55.134Z,-9.0
2023-02-11T00:49:25.743Z,-9.0
2023-02-11T00:51:56.365Z,-8.9
2023-02-11T00:54:29.700Z,-8.9
2023-02-11T00:57:00.565Z,-9.0
2023-02-11T00:59:31.169Z,-9.0
2023-02-11T01:02:01.810Z,-9.0
2023-02-11T01:04:32.432Z,-9.0
2023-02-11T01:07:03.085Z,-9.0
2023-02-11T01:09:33.749Z,-9.0
2023-02-11T01:12:14.415Z,-9.0
2023-02-11T01:14:46.659Z,-9.0
2023-02-11T01:17:17.287Z,-9.0
2023-02-11T01:19:47.896Z,-9.1
2023-02-11T01:24:48.616Z,-9.2
2023-02-11T01:27:29.236Z,-9.2
2023-02-11T01:29:59.864Z,-9.3
2023-02-11T01:32:30.490Z,-9.2
2023-02-11T01:35:01.098Z,-9.3
2023-02-11T01:37:31.717Z,-9.3
2023-02-11T01:40:02.350Z,-9.2
2023-02-11T01:42:42.996Z,-9.3
2023-02-11T01:45:23.632Z,-9.3
2023-02-11T01:47:54.229Z,-9.4
2023-02-11T01:50:24.907Z,-9.3
2023-02-11T01:52:55.518Z,-9.2
2023-02-11T01:55:36.149Z,-9.1
2023-02-11T01:58:06.772Z,-9.1
2023-02-11T02:00:37.431Z,-9.1
2023-02-11T02:05:38.046Z,-9.0
2023-02-11T02:08:09.058Z,-9.1
2023-02-11T02:10:49.728Z,-9.1
2023-02-11T02:13:20.336Z,-9.2
2023-02-11T02:15:51.282Z,-9.2
2023-02-11T02:18:22.242Z,-9.2
2023-02-11T02:20:52.905Z,-9.2
2023-02-11T02:23:23.516Z,-9.2
2023-02-11T02:26:04.133Z,-9.3
2023-02-11T02:28:34.790Z,-9.2
2023-02-11T02:31:05.570Z,-9.1
2023-02-11T02:33:36.382Z,-9.1
2023-02-11T02:36:06.992Z,-9.1
2023-02-11T02:38:37.600Z,-9.1
2023-02-11T02:41:18.231Z,-9.1
2023-02-11T02:46:18.943Z,-9.1
2023-02-11T02:48:49.695Z,-9.2
2023-02-11T02:51:20.419Z,-9.1
2023-02-11T02:54:01.032Z,-9.0
2023-02-11T02:56:31.740Z,-9.0
2023-02-11T02:59:02.450Z,-9.1
2023-02-11T03:01:33.402Z,-9.1
2023-02-11T03:04:04.110Z,-9.2
2023-02-11T03:06:34.761Z,-9.3
2023-02-11T03:09:15.395Z,-9.3
2023-02-11T03:11:46.062Z,-9.2
2023-02-11T03:14:16.724Z,-9.2
2023-02-11T03:16:47.399Z,-9.0
2023-02-11T03:19:18.042Z,-9.0
2023-02-11T03:21:48.712Z,-9.0
2023-02-11T03:26:59.340Z,-9.0
2023-02-11T03:29:29.937Z,-8.8
2023-02-11T03:32:00.701Z,-8.6
2023-02-11T03:34:31.382Z,-8.6
2023-02-11T03:37:02.028Z,-8.6
2023-02-11T03:39:42.658Z,-8.6
2023-02-11T03:42:13.333Z,-8.6
2023-02-11T03:44:43.961Z,-8.6
2023-02-11T03:47:14.616Z,-8.6
2023-02-11T03:49:45.221Z,-8.6
2023-02-11T03:52:25.904Z,-8.6
2023-02-11T03:54:56.512Z,-8.6
2023-02-11T03:57:27.117Z,-8.6
2023-02-11T03:59:57.734Z,-8.5
2023-02-11T04:02:28.459Z,-8.5
2023-02-11T04:07:39.173Z,-8.2
2023-02-11T04:10:09.797Z,-7.8
2023-02-11T04:12:40.427Z,-7.7
2023-02-11T04:15:11.041Z,-7.8
2023-02-11T04:17:41.669Z,-7.7
2023-02-11T04:20:12.314Z,-7.7
2023-02-11T04:22:52.932Z,-7.6
2023-02-11T04:25:23.538Z,-7.6
2023-02-11T04:27:54.140Z,-7.6
2023-02-11T04:30:24.888Z,-7.5
2023-02-11T04:32:55.522Z,-7.4
2023-02-11T04:35:26.142Z,-7.4
2023-02-11T04:38:06.763Z,-7.4
2023-02-11T04:40:37.398Z,-7.3
2023-02-11T04:43:08.032Z,-7.3
2023-02-11T04:48:18.688Z,-7.0
2023-02-11T04:50:49.332Z,-7.0
2023-02-11T04:53:29.960Z,-7.0
2023-02-11T04:56:00.613Z,-6.9
2023-02-11T04:58:31.242Z,-6.9
2023-02-11T05:01:01.933Z,-6.9
2023-02-11T05:03:32.715Z,-6.8
2023-02-11T05:06:13.594Z,-6.8
2023-02-11T05:08:44.239Z,-6.8
2023-02-11T05:13:44.983Z,-6.7
2023-02-11T05:16:15.674Z,-6.7
2023-02-11T05:18:46.464Z,-6.6
2023-02-11T05:21:27.106Z,-6.6
2023-02-11T05:23:51.924Z,-6.5
2023-02-11T05:28:52.533Z,-6.4
2023-02-11T05:31:23.181Z,-6.4
2023-02-11T05:33:53.824Z,-6.5
2023-02-11T05:36:34.472Z,-6.4
2023-02-11T05:39:05.136Z,-6.5
2023-02-11T05:41:35.781Z,-6.5
2023-02-11T05:44:06.420Z,-6.5
2023-02-11T05:46:37.267Z,-6.5
2023-02-11T05:49:08.070Z,-6.5
2023-02-11T05:51:48.730Z,-6.5
2023-02-11T05:54:29.382Z,-6.6
2023-02-11T05:57:00.034Z,-6.6
2023-02-11T05:59:30.680Z,-6.6
2023-02-11T06:02:01.365Z,-6.6
2023-02-11T06:04:42.073Z,-6.6
2023-02-11T06:09:42.740Z,-6.6
2023-02-11T06:12:13.383Z,-6.6
2023-02-11T06:14:43.984Z,-6.4
2023-02-11T06:17:15.695Z,-6.4
2023-02-11T06:19:56.482Z,-6.4
2023-02-11T06:25:01.546Z,-6.4
2023-02-11T06:27:22.414Z,-6.3
2023-02-11T06:29:53.056Z,-6.4
2023-02-11T06:32:42.570Z,-6.3
2023-02-11T06:35:04.056Z,-6.2
2023-02-11T06:37:34.722Z,-6.3
2023-02-11T06:40:05.354Z,-6.2
2023-02-11T06:42:36.106Z,-6.3
2023-02-11T06:45:06.768Z,-6.2
2023-02-11T06:50:17.443Z,-6.3
2023-02-11T06:52:48.061Z,-6.3
2023-02-11T06:55:18.692Z,-6.3
2023-02-11T06:57:49.335Z,-6.3
2023-02-11T07:00:20.049Z,-6.3
2023-02-11T07:03:00.787Z,-6.2
2023-02-11T07:05:31.650Z,-6.2
2023-02-11T07:08:02.787Z,-6.2
2023-02-11T07:10:33.408Z,-6.2
2023-02-11T07:13:04.038Z,-6.1
2023-02-11T07:15:34.639Z,-6.1
2023-02-11T07:18:15.377Z,-6.0
2023-02-11T07:20:45.992Z,-6.0
2023-02-11T07:23:16.616Z,-5.9
2023-02-11T07:25:47.246Z,-5.9
2023-02-11T07:30:57.913Z,-5.9
2023-02-11T07:33:38.852Z,-5.8
2023-02-11T07:36:09.481Z,-5.8
2023-02-11T07:38:40.134Z,-5.7
2023-02-11T07:41:10.789Z,-5.7
2023-02-11T07:43:41.422Z,-5.5
2023-02-11T07:46:12.096Z,-5.4
2023-02-11T07:48:53.019Z,-5.4
2023-02-11T07:51:23.688Z,-5.4
2023-02-11T07:53:54.387Z,-5.4
2023-02-11T07:56:25.009Z,-5.3
2023-02-11T07:58:55.639Z,-5.3
2023-02-11T08:04:06.318Z,-5.0
2023-02-11T08:06:36.932Z,-5.0
2023-02-11T08:11:39.317Z,-4.9
2023-02-11T08:14:09.956Z,-4.8
2023-02-11T08:19:20.575Z,-4.8
2023-02-11T08:21:52.866Z,-4.7
2023-02-11T08:24:23.515Z,-4.7
2023-02-11T08:26:54.104Z,-4.6
2023-02-11T08:29:24.726Z,-4.6
2023-02-11T08:32:05.426Z,-4.5
2023-02-11T08:34:36.171Z,-4.5
2023-02-11T08:37:06.818Z,-4.5
2023-02-11T08:39:37.416Z,-4.3
2023-02-11T08:42:08.026Z,-4.2
2023-02-11T08:44:38.641Z,-4.1
2023-02-11T08:47:19.307Z,-4.1
2023-02-11T08:52:19.965Z,-3.9
2023-02-11T08:54:50.604Z,-3.7
2023-02-11T08:57:21.279Z,-3.6
2023-02-11T09:00:01.901Z,-3.5
2023-02-11T09:02:32.612Z,-3.4
2023-02-11T09:05:03.283Z,-3.3
2023-02-11T09:07:33.936Z,-3.0
2023-02-11T09:10:04.540Z,-2.8
2023-02-11T09:12:35.174Z,-2.7
2023-02-11T09:15:15.828Z,-2.5
2023-02-11T09:17:46.523Z,-2.3
2023-02-11T09:20:17.147Z,-2.1
2023-02-11T09:22:47.785Z,-2.2
2023-02-11T09:25:18.448Z,-2.1
2023-02-11T09:27:49.057Z,-2.1
2023-02-11T09:32:59.885Z,-1.9
2023-02-11T09:35:30.504Z,-1.9
2023-02-11T09:38:01.121Z,-1.7
2023-02-11T09:40:31.780Z,-1.6
2023-02-11T09:43:04.210Z,-1.5
2023-02-11T09:45:45.039Z,-1.4
2023-02-11T09:48:15.844Z,-1.2
2023-02-11T09:50:46.503Z,-1.2
2023-02-11T09:53:17.110Z,-1.2
2023-02-11T09:55:47.719Z,-1.2
2023-02-11T09:58:18.370Z,-1.2
2023-02-11T10:00:59.112Z,-1.0
2023-02-11T10:03:31.284Z,-0.9
2023-02-11T10:06:01.912Z,-0.6
2023-02-11T10:08:32.576Z,-0.4
2023-02-11T10:13:33.227Z,-0.2
2023-02-11T10:16:13.957Z,-0.1
2023-02-11T10:18:44.612Z,-0.1
2023-02-11T10:21:15.252Z,0.0
2023-02-11T10:23:45.872Z,0.1
2023-02-11T10:26:16.536Z,0.1
2023-02-11T10:28:57.236Z,0.2
2023-02-11T10:31:28.098Z,0.3
2023-02-11T10:33:59.016Z,0.3
2023-02-11T10:36:29.654Z,0.3
2023-02-11T10:39:00.293Z,0.3
2023-02-11T10:44:10.946Z,0.6
2023-02-11T10:46:41.670Z,0.7
2023-02-11T10:49:12.343Z,0.8
2023-02-11T10:54:13.796Z,0.9
2023-02-11T10:56:44.540Z,0.9
2023-02-11T10:59:25.173Z,1.1
2023-02-11T11:01:55.889Z,1.1
2023-02-11T11:04:26.724Z,1.3
2023-02-11T11:06:57.616Z,1.2
2023-02-11T11:09:28.261Z,1.3
2023-02-11T11:11:58.894Z,1.3
2023-02-11T11:14:39.516Z,1.5
2023-02-11T11:17:10.208Z,1.6
2023-02-11T11:19:40.838Z,1.7
2023-02-11T11:22:11.474Z,1.7
2023-02-11T11:24:42.123Z,1.6
2023-02-11T11:27:12.775Z,1.8
2023-02-11T11:29:53.392Z,2.0
2023-02-11T11:34:54.094Z,2.6
2023-02-11T11:37:24.751Z,2.8
2023-02-11T11:39:55.679Z,2.8
2023-02-11T11:42:36.377Z,2.8
2023-02-11T11:45:06.980Z,2.9
2023-02-11T11:47:37.621Z,3.1
2023-02-11T11:50:20.791Z,3.3
2023-02-11T11:52:41.690Z,3.5
2023-02-11T11:55:12.329Z,3.7
2023-02-11T11:57:52.935Z,3.8
2023-02-11T12:00:23.575Z,3.7
2023-02-11T12:02:54.205Z,3.5
2023-02-11T12:05:24.982Z,3.5
2023-02-11T12:07:55.587Z,3.7
2023-02-11T12:10:26.191Z,3.9
2023-02-11T12:15:36.816Z,3.9
2023-02-11T12:18:07.420Z,4.0
2023-02-11T12:20:38.013Z,3.9
2023-02-11T12:23:08.655Z,4.1
2023-02-11T12:25:39.288Z,4.4
2023-02-11T12:28:29.940Z,4.6
2023-02-11T12:30:51.234Z,4.9
2023-02-11T12:33:23.451Z,5.2
2023-02-11T12:35:54.119Z,5.3
2023-02-11T12:38:24.737Z,5.6
2023-02-11T12:40:55.376Z,5.9
2023-02-11T12:43:36.006Z,6.0
2023-02-11T12:46:06.726Z,6.1
2023-02-11T12:48:37.450Z,5.9
2023-02-11T12:51:08.053Z,5.8
2023-02-11T12:56:18.673Z,5.8
2023-02-11T12:58:59.292Z,5.9
2023-02-11T13:01:21.509Z,5.9
2023-02-11T13:03:52.473Z,5.8
2023-02-11T13:06:23.112Z,5.8
2023-02-11T13:08:53.706Z,5.6
2023-02-11T13:11:34.342Z,5.6
2023-02-11T13:14:04.960Z,5.6
2023-02-11T13:16:35.700Z,5.4
2023-02-11T13:19:06.504Z,5.2
2023-02-11T13:21:37.152Z,5.1
2023-02-11T13:24:07.764Z,4.9
2023-02-11T13:29:18.408Z,4.7
2023-02-11T13:31:59.174Z,4.8
2023-02-11T13:37:00.184Z,4.8
2023-02-11T13:39:30.814Z,4.8
2023-02-11T13:42:11.432Z,4.8
2023-02-11T13:44:42.064Z,4.9
2023-02-11T13:47:12.731Z,4.9
2023-02-11T13:49:43.358Z,4.9
2023-02-11T13:52:14.020Z,4.9
2023-02-11T13:54:54.662Z,4.9
2023-02-11T13:57:25.318Z,4.7
2023-02-11T13:59:55.947Z,4.7
2023-02-11T14:02:26.722Z,4.6
2023-02-11T14:04:57.665Z,4.5
2023-02-11T14:07:28.301Z,4.5
2023-02-11T14:10:08.942Z,4.5
2023-02-11T14:12:39.605Z,4.5
2023-02-11T14:17:40.284Z,4.6
2023-02-11T14:20:10.892Z,4.7
2023-02-11T14:22:41.525Z,4.7
2023-02-11T14:25:22.142Z,4.6
2023-02-11T14:27:52.769Z,4.5
2023-02-11T14:30:23.457Z,4.5
2023-02-11T14:32:54.394Z,4.4
2023-02-11T14:35:25.068Z,4.3
2023-02-11T14:37:55.683Z,4.2
2023-02-11T14:40:36.347Z,4.1
2023-02-11T14:43:06.990Z,4.1
2023-02-11T14:45:39.824Z,4.0
2023-02-11T14:48:10.674Z,3.9
2023-02-11T14:50:41.276Z,3.8
2023-02-11T14:53:22.361Z,3.8
2023-02-11T14:58:23.027Z,3.7
2023-02-11T15:00:53.819Z,3.7
2023-02-11T15:03:24.655Z,3.6
2023-02-11T15:05:55.312Z,3.5
2023-02-11T15:08:35.945Z,3.6
2023-02-11T15:11:06.588Z,3.5
2023-02-11T15:13:37.220Z,3.5
2023-02-11T15:16:08.114Z,3.5
2023-02-11T15:18:39.018Z,3.5
2023-02-11T15:21:09.641Z,3.5
2023-02-11T15:23:50.303Z,3.5
2023-02-11T15:26:20.911Z,3.5
2023-02-11T15:28:51.541Z,3.5
2023-02-11T15:31:22.214Z,3.5
2023-02-11T15:33:55.797Z,3.5
2023-02-11T15:39:06.407Z,3.4
2023-02-11T15:41:37.055Z,3.4
2023-02-11T15:44:07.676Z,3.2
2023-02-11T15:46:38.362Z,3.1
2023-02-11T15:49:09.056Z,3.1
2023-02-11T15:51:49.819Z,3.3
2023-02-11T15:54:20.445Z,3.2
2023-02-11T15:56:51.272Z,3.3
2023-02-11T15:59:21.885Z,3.3
2023-02-11T16:01:52.673Z,3.3
2023-02-11T16:04:23.527Z,3.2
2023-02-11T16:07:04.316Z,3.2
2023-02-11T16:09:34.933Z,3.2
2023-02-11T16:12:05.566Z,3.1
2023-02-11T16:14:36.163Z,3.1
2023-02-11T16:19:36.803Z,3.1
2023-02-11T16:22:17.438Z,3.1
2023-02-11T16:24:48.092Z,3.0
2023-02-11T16:27:18.711Z,3.1
2023-02-11T16:29:49.342Z,3.2
2023-02-11T16:32:19.951Z,3.1
2023-02-11T16:34:50.558Z,3.1
2023-02-11T16:37:31.371Z,3.1
2023-02-11T16:40:02.025Z,3.0
2023-02-11T16:42:32.674Z,2.8
2023-02-11T16:45:03.289Z,2.8
2023-02-11T16:47:34.146Z,2.7
2023-02-11T16:50:04.755Z,2.6
2023-02-11T16:52:45.520Z,2.5
2023-02-11T16:55:16.138Z,2.3
2023-02-11T17:00:16.781Z,2.1
2023-02-11T17:02:47.577Z,1.9
2023-02-11T17:05:28.178Z,1.9
2023-02-11T17:07:55.073Z,1.8
2023-02-11T17:10:25.681Z,1.8
2023-02-11T17:12:56.308Z,1.8
2023-02-11T17:15:26.958Z,1.8
2023-02-11T17:17:57.606Z,1.8
2023-02-11T17:20:48.232Z,1.9
2023-02-11T17:23:18.833Z,1.9
2023-02-11T17:25:49.649Z,1.9
2023-02-11T17:28:20.369Z,1.9
2023-02-11T17:30:51.137Z,1.9
2023-02-11T17:33:22.010Z,2.0
2023-02-11T17:35:55.614Z,2.0
2023-02-11T17:40:56.262Z,1.9
2023-02-11T17:43:26.885Z,1.9
2023-02-11T17:45:57.669Z,1.9
2023-02-11T17:48:28.631Z,1.9
2023-02-11T17:51:09.263Z,1.8
2023-02-11T17:53:39.910Z,1.7
2023-02-11T17:56:10.523Z,1.6
2023-02-11T17:58:41.139Z,1.6
2023-02-11T18:01:11.779Z,1.6
2023-02-11T18:03:52.638Z,1.6
2023-02-11T18:06:23.346Z,1.6
2023-02-11T18:08:56.298Z,1.5
2023-02-11T18:11:28.135Z,1.5
2023-02-11T18:13:58.757Z,1.4
2023-02-11T18:16:29.740Z,1.4
2023-02-11T18:21:40.672Z,1.3
2023-02-11T18:24:11.546Z,1.3
2023-02-11T18:26:42.169Z,1.3
2023-02-11T18:29:12.840Z,1.4
2023-02-11T18:31:43.549Z,1.4
2023-02-11T18:34:24.359Z,1.3
2023-02-11T18:36:54.990Z,1.3
2023-02-11T18:39:25.619Z,1.2
2023-02-11T18:41:56.267Z,1.1
2023-02-11T18:44:26.874Z,1.1
2023-02-11T18:46:57.507Z,1.1
2023-02-11T18:49:38.162Z,1.0
2023-02-11T18:52:08.797Z,1.0
2023-02-11T18:54:39.424Z,0.9
2023-02-11T18:57:10.421Z,0.9
2023-02-11T19:02:21.082Z,0.8
2023-02-11T19:04:51.728Z,0.8
2023-02-11T19:07:22.392Z,0.7
2023-02-11T19:09:53.138Z,0.7
2023-02-11T19:12:23.862Z,0.7
2023-02-11T19:14:54.467Z,0.6
2023-02-11T19:17:35.084Z,0.6
2023-02-11T19:20:05.712Z,0.5
2023-02-11T19:22:36.355Z,0.5
2023-02-11T19:25:06.970Z,0.5
2023-02-11T19:27:37.591Z,0.5
2023-02-11T19:30:18.324Z,0.4
2023-02-11T19:32:49.015Z,0.4
2023-02-11T19:35:20.515Z,0.3
2023-02-11T19:37:51.136Z,0.3
2023-02-11T19:42:51.744Z,0.3
2023-02-11T19:45:32.386Z,0.3
2023-02-11T19:48:03.424Z,0.3
2023-02-11T19:50:34.044Z,0.2
2023-02-11T19:53:04.663Z,0.3
2023-02-11T19:55:35.262Z,0.2
2023-02-11T19:58:05.886Z,0.2
2023-02-11T20:00:46.532Z,0.1
2023-02-11T20:03:17.211Z,0.1
2023-02-11T20:05:47.941Z,0.1
2023-02-11T20:08:18.570Z,0.0
2023-02-11T20:10:49.198Z,0.0
2023-02-11T20:13:29.794Z,0.0
2023-02-11T20:16:00.496Z,0.0
2023-02-11T20:18:31.344Z,0.0
2023-02-11T20:23:41.945Z,-0.1
2023-02-11T20:26:12.580Z,0.0
2023-02-11T20:28:53.191Z,0.0
2023-02-11T20:31:23.994Z,0.0
2023-02-11T20:33:45.203Z,0.0
2023-02-11T20:36:15.845Z,0.0
2023-02-11T20:38:46.467Z,-0.1
2023-02-11T20:41:27.101Z,-0.1
2023-02-11T20:43:57.788Z,-0.1
2023-02-11T20:46:38.662Z,-0.1
2023-02-11T20:48:59.540Z,-0.1
2023-02-11T20:51:30.148Z,-0.3
2023-02-11T20:54:00.761Z,-0.3
2023-02-11T20:56:41.408Z,-0.5
2023-02-11T20:59:22.049Z,-0.5
2023-02-11T21:04:22.762Z,-0.5
2023-02-11T21:06:53.387Z,-0.6
2023-02-11T21:09:23.988Z,-0.6
2023-02-11T21:12:04.612Z,-0.6
2023-02-11T21:14:35.208Z,-0.6
2023-02-11T21:17:05.940Z,-0.6
2023-02-11T21:19:36.577Z,-0.6
2023-02-11T21:22:07.200Z,-0.5
2023-02-11T21:24:47.834Z,-0.5
2023-02-11T21:27:18.449Z,-0.3
2023-02-11T21:29:54.023Z,-0.1
2023-02-11T21:32:14.815Z,-0.1
2023-02-11T21:34:45.435Z,-0.1
2023-02-11T21:37:16.092Z,-0.1
2023-02-11T21:39:56.798Z,-0.1
2023-02-11T21:44:57.444Z,-0.1
2023-02-11T21:47:28.056Z,-0.2
2023-02-11T21:49:58.703Z,-0.1
2023-02-11T21:52:29.343Z,-0.1
2023-02-11T21:55:09.940Z,-0.1
2023-02-11T21:57:40.546Z,-0.1
2023-02-11T22:00:11.172Z,-0.1
2023-02-11T22:02:41.860Z,-0.1
2023-02-11T22:05:12.528Z,-0.1
2023-02-11T22:07:53.119Z,-0.1
2023-02-11T22:10:23.729Z,0.0
2023-02-11T22:12:54.349Z,-0.1
2023-02-11T22:15:25.007Z,0.0
2023-02-11T22:17:55.618Z,0.0
2023-02-11T22:20:26.238Z,0.0
2023-02-11T22:25:37.001Z,-0.1
2023-02-11T22:28:17.680Z,-0.1
2023-02-11T22:30:38.464Z,-0.1
2023-02-11T22:33:09.207Z,-0.2
2023-02-11T22:35:49.859Z,-0.2
2023-02-11T22:38:30.517Z,-0.1
2023-02-11T22:41:01.151Z,-0.1
2023-02-11T22:43:31.781Z,-0.1
2023-02-11T22:46:02.509Z,-0.1
2023-02-11T22:48:33.272Z,-0.2
2023-02-11T22:51:13.922Z,-0.2
2023-02-11T22:53:44.679Z,-0.3
2023-02-11T22:56:15.991Z,-0.3
2023-02-11T22:58:36.638Z,-0.3
2023-02-11T23:01:07.365Z,-0.3
2023-02-11T23:06:28.177Z,-0.3
2023-02-11T23:08:58.798Z,-0.2
2023-02-11T23:11:29.457Z,-0.2
2023-02-11T23:14:00.129Z,-0.2
2023-02-11T23:16:30.912Z,-0.2
2023-02-11T23:19:11.838Z,-0.2
2023-02-11T23:21:42.480Z,-0.2
2023-02-11T23:24:13.133Z,-0.3
2023-02-11T23:26:43.838Z,-0.3
2023-02-11T23:29:14.572Z,-0.1
2023-02-11T23:31:45.272Z,0.1
2023-02-11T23:34:19.243Z,0.2
2023-02-11T23:36:49.866Z,-0.1
2023-02-11T23:39:20.529Z,-0.3
2023-02-11T23:41:51.189Z,-0.5
2023-02-11T23:46:51.855Z,-0.7
2023-02-11T23:49:32.462Z,-0.8
2023-02-11T23:52:03.069Z,-0.8
2023-02-11T23:54:33.701Z,-0.9
2023-02-11T23:57:04.326Z,-0.9
2023-02-11T23:59:34.927Z,-0.9
